Time;durP1;ratioP1;P1;durP2;ratioP2;P2;SDS_P1;SDS_P2;PMS_P1;PMS_P2;Temp;Humidity;BMP_temperature;BMP_pressure;BME280_temperature;BME280_humidity;BME280_pressure;Samples;Min_cycle;Max_cycle;Signal;HPM_P1;HPM_P2
2023/08/08 00:00:38;;;;;;;3.83;2.78;;;12.80;99.90;;;;;;5057830;28;20037;-81
2023/08/08 00:03:04;;;;;;;5.40;2.53;;;12.90;99.90;;;;;;5042109;28;20045;-82
2023/08/08 00:05:30;;;;;;;3.75;2.60;;;12.90;99.90;;;;;;5069380;28;20079;-82
2023/08/08 00:07:55;;;;;;;4.65;2.70;;;12.90;99.90;;;;;;5053365;28;20095;-82
2023/08/08 00:10:21;;;;;;;4.07;2.80;;;12.90;99.90;;;;;;5071166;28;20397;-82
2023/08/08 00:12:47;;;;;;;4.43;2.67;;;12.90;99.90;;;;;;5047723;28;20153;-82
2023/08/08 00:15:12;;;;;;;4.78;3.05;;;12.80;99.90;;;;;;5052947;28;20037;-83
2023/08/08 00:17:38;;;;;;;4.88;2.72;;;12.40;99.90;;;;;;5072440;28;20048;-83
2023/08/08 00:20:05;;;;;;;3.88;2.85;;;12.80;99.90;;;;;;5059147;28;20486;-82
2023/08/08 00:22:30;;;;;;;4.78;2.67;;;12.80;99.90;;;;;;5050020;28;20044;-81
2023/08/08 00:24:56;;;;;;;4.68;2.75;;;12.80;99.90;;;;;;5040926;28;20358;-81
2023/08/08 00:27:22;;;;;;;4.93;2.88;;;12.80;99.90;;;;;;5083982;28;20106;-80
2023/08/08 00:29:48;;;;;;;5.25;3.00;;;12.90;99.90;;;;;;5071714;28;20053;-82
2023/08/08 00:32:14;;;;;;;5.70;2.50;;;12.90;99.90;;;;;;5053970;28;20132;-82
2023/08/08 00:34:39;;;;;;;4.35;3.13;;;12.90;99.90;;;;;;5036337;28;20053;-81
2023/08/08 00:37:05;;;;;;;5.30;3.05;;;12.90;99.90;;;;;;5050791;28;20037;-82
2023/08/08 00:39:31;;;;;;;5.55;2.80;;;12.90;99.90;;;;;;5054079;28;20113;-81
2023/08/08 00:41:56;;;;;;;4.57;2.28;;;13.00;99.90;;;;;;5068899;28;20044;-82
2023/08/08 00:44:22;;;;;;;3.63;2.72;;;13.00;99.90;;;;;;5059195;28;20438;-81
2023/08/08 00:46:48;;;;;;;4.65;3.13;;;13.00;99.90;;;;;;5052825;28;20065;-81
2023/08/08 00:49:14;;;;;;;5.47;3.40;;;13.00;99.90;;;;;;5069760;28;20067;-81
2023/08/08 00:51:40;;;;;;;4.93;2.85;;;12.90;99.90;;;;;;5054173;28;20121;-81
2023/08/08 00:54:07;;;;;;;5.47;2.80;;;12.90;99.90;;;;;;5059971;28;20482;-82
2023/08/08 00:56:33;;;;;;;5.25;3.20;;;12.90;99.90;;;;;;5068981;28;20045;-81
2023/08/08 00:58:59;;;;;;;6.00;3.80;;;12.90;99.90;;;;;;5060267;28;20071;-82
2023/08/08 01:01:24;;;;;;;4.30;3.17;;;12.80;99.90;;;;;;5062861;28;20083;-83
2023/08/08 01:03:52;;;;;;;4.85;3.05;;;12.80;99.90;;;;;;5053091;28;20044;-82
2023/08/08 01:06:49;;;;;;;6.53;3.70;;;12.80;99.90;;;;;;5044880;28;20496;-83
2023/08/08 01:09:24;;;;;;;4.70;2.83;;;12.80;99.90;;;;;;5064314;28;20061;-82
2023/08/08 01:11:51;;;;;;;4.75;2.95;;;12.70;99.90;;;;;;5070964;28;20037;-82
2023/08/08 01:14:18;;;;;;;4.80;3.10;;;12.80;99.90;;;;;;5065199;28;20040;-82
2023/08/08 01:16:45;;;;;;;5.00;3.72;;;12.80;99.90;;;;;;5056783;28;20045;-81
2023/08/08 01:19:19;;;;;;;5.35;3.20;;;12.80;99.90;;;;;;5071827;28;20551;-82
2023/08/08 01:21:47;;;;;;;5.53;3.42;;;12.80;99.90;;;;;;5037887;28;20557;-82
2023/08/08 01:24:25;;;;;;;7.82;3.65;;;12.80;99.90;;;;;;5062046;28;20124;-81
2023/08/08 01:26:51;;;;;;;4.78;3.50;;;12.80;99.90;;;;;;5069774;28;20051;-81
2023/08/08 01:29:17;;;;;;;4.68;3.30;;;12.90;99.90;;;;;;5046424;28;20052;-81
2023/08/08 01:31:43;;;;;;;4.78;3.10;;;12.90;99.90;;;;;;5078331;28;20041;-81
2023/08/08 01:34:08;;;;;;;5.22;3.17;;;12.90;99.90;;;;;;5045260;28;20052;-82
2023/08/08 01:37:02;;;;;;;4.40;2.92;;;13.00;99.90;;;;;;5050806;28;20045;-81
2023/08/08 01:39:31;;;;;;;3.92;2.80;;;13.00;99.90;;;;;;5047035;28;20091;-80
2023/08/08 01:41:59;;;;;;;4.53;3.22;;;12.90;99.90;;;;;;5045904;28;20087;-81
2023/08/08 01:44:27;;;;;;;5.28;3.30;;;12.90;99.90;;;;;;5049127;28;20075;-81
2023/08/08 01:46:53;;;;;;;6.25;3.00;;;12.90;99.90;;;;;;5058212;28;20489;-83
2023/08/08 01:49:19;;;;;;;4.93;3.33;;;13.00;99.90;;;;;;5051394;28;20139;-82
2023/08/08 01:51:45;;;;;;;4.60;3.25;;;12.90;99.90;;;;;;5051779;28;20128;-81
2023/08/08 01:54:11;;;;;;;5.28;3.10;;;12.90;99.90;;;;;;5060162;28;20056;-81
2023/08/08 01:56:37;;;;;;;5.28;3.45;;;13.00;99.90;;;;;;5042409;28;20041;-81
2023/08/08 01:59:02;;;;;;;6.05;3.67;;;13.00;99.90;;;;;;5054965;28;20049;-81
2023/08/08 02:01:28;;;;;;;4.75;3.30;;;13.10;99.90;;;;;;5058119;28;20037;-82
2023/08/08 02:03:54;;;;;;;5.20;3.40;;;13.10;99.90;;;;;;5068265;28;20095;-82
2023/08/08 02:06:19;;;;;;;5.97;3.38;;;13.00;99.90;;;;;;5067636;28;20049;-81
2023/08/08 02:08:45;;;;;;;5.50;3.13;;;13.00;99.90;;;;;;5068522;28;20389;-81
2023/08/08 02:11:11;;;;;;;4.47;3.13;;;13.00;99.90;;;;;;5045495;28;20043;-83
2023/08/08 02:13:37;;;;;;;4.63;3.30;;;13.00;99.90;;;;;;5071473;28;20485;-81
2023/08/08 02:16:02;;;;;;;5.15;3.30;;;13.00;99.90;;;;;;5049980;28;20412;-82
2023/08/08 02:18:28;;;;;;;5.35;3.25;;;13.10;99.90;;;;;;5051156;28;20043;-82
2023/08/08 02:20:54;;;;;;;6.13;3.35;;;13.00;99.90;;;;;;5051453;28;20070;-82
2023/08/08 02:23:19;;;;;;;5.65;3.45;;;13.00;99.90;;;;;;5051483;28;20059;-82
2023/08/08 02:25:45;;;;;;;6.97;4.15;;;13.00;99.90;;;;;;5033653;28;20045;-82
2023/08/08 02:28:11;;;;;;;5.68;3.15;;;13.00;99.90;;;;;;5050642;28;20041;-81
2023/08/08 02:30:37;;;;;;;6.25;3.17;;;13.00;99.90;;;;;;5052055;28;20441;-82
2023/08/08 02:33:03;;;;;;;6.55;3.50;;;13.00;99.90;;;;;;5068278;28;20033;-81
2023/08/08 02:35:29;;;;;;;5.95;2.95;;;13.10;99.90;;;;;;5067372;28;20072;-82
2023/08/08 02:37:56;;;;;;;4.93;3.20;;;13.00;99.90;;;;;;5066103;28;20397;-81
2023/08/08 02:40:23;;;;;;;4.82;3.08;;;13.00;99.90;;;;;;5071486;28;20041;-81
2023/08/08 02:42:49;;;;;;;5.47;3.40;;;13.00;99.90;;;;;;5050605;28;20537;-82
2023/08/08 02:45:15;;;;;;;5.05;2.83;;;13.00;99.90;;;;;;5059732;28;20053;-81
2023/08/08 02:47:41;;;;;;;5.55;3.15;;;13.00;99.90;;;;;;5054558;28;20068;-81
2023/08/08 02:50:07;;;;;;;5.78;3.20;;;13.00;99.90;;;;;;5052195;28;20049;-81
2023/08/08 02:52:32;;;;;;;5.30;3.50;;;13.00;99.90;;;;;;5055043;28;20485;-82
2023/08/08 02:54:58;;;;;;;4.80;3.08;;;13.00;99.90;;;;;;5067904;28;20112;-81
2023/08/08 02:57:24;;;;;;;5.82;3.63;;;13.00;99.90;;;;;;5058053;28;20558;-81
2023/08/08 02:59:49;;;;;;;6.30;3.50;;;13.00;99.90;;;;;;5050520;28;20127;-81
2023/08/08 03:02:15;;;;;;;8.30;3.67;;;13.00;99.90;;;;;;5053108;28;20384;-81
2023/08/08 03:04:40;;;;;;;5.57;3.63;;;13.00;99.90;;;;;;5070847;28;20079;-81
2023/08/08 03:07:06;;;;;;;9.00;4.10;;;13.10;99.90;;;;;;5068677;28;20044;-81
2023/08/08 03:09:32;;;;;;;6.72;3.63;;;13.00;99.90;;;;;;5075170;28;20052;-81
2023/08/08 03:11:57;;;;;;;5.22;3.65;;;13.10;99.90;;;;;;5041487;28;20477;-82
2023/08/08 03:14:23;;;;;;;5.78;3.50;;;13.10;99.90;;;;;;5075933;28;20051;-82
2023/08/08 03:16:49;;;;;;;7.18;3.75;;;13.10;99.90;;;;;;5043889;28;20040;-83
2023/08/08 03:19:14;;;;;;;6.32;3.58;;;13.10;99.90;;;;;;5045208;28;20389;-81
2023/08/08 03:21:40;;;;;;;7.07;3.55;;;13.10;99.90;;;;;;5054519;28;20033;-81
2023/08/08 03:24:06;;;;;;;11.68;3.92;;;13.10;99.90;;;;;;5045475;28;20101;-82
2023/08/08 03:26:31;;;;;;;7.95;3.25;;;13.10;99.90;;;;;;5073107;28;20052;-82
2023/08/08 03:28:57;;;;;;;6.00;3.53;;;13.00;99.90;;;;;;5061530;28;20052;-80
2023/08/08 03:31:23;;;;;;;6.68;3.20;;;13.00;99.90;;;;;;5068040;28;20082;-82
2023/08/08 03:33:49;;;;;;;6.70;3.38;;;13.00;99.90;;;;;;5059848;28;20053;-81
2023/08/08 03:36:15;;;;;;;8.02;3.75;;;13.00;99.90;;;;;;5058965;28;20044;-79
2023/08/08 03:38:44;;;;;;;7.32;3.35;;;13.00;99.90;;;;;;5064910;28;20045;-81
2023/08/08 03:41:10;;;;;;;6.95;3.10;;;13.10;99.90;;;;;;5070801;28;20044;-81
2023/08/08 03:43:35;;;;;;;4.68;3.00;;;13.10;99.90;;;;;;5043898;28;20045;-81
2023/08/08 03:46:01;;;;;;;7.78;3.45;;;13.10;99.90;;;;;;5066104;28;20052;-82
2023/08/08 03:48:27;;;;;;;5.80;3.20;;;13.10;99.90;;;;;;5042991;28;20144;-82
2023/08/08 03:50:52;;;;;;;6.57;3.38;;;13.10;99.90;;;;;;5070702;28;20055;-82
2023/08/08 03:53:18;;;;;;;6.35;3.60;;;13.10;99.90;;;;;;5053911;28;20076;-80
2023/08/08 03:55:44;;;;;;;6.55;2.97;;;13.00;99.90;;;;;;5053736;28;20556;-81
2023/08/08 03:58:10;;;;;;;5.30;3.33;;;13.10;99.90;;;;;;5056462;28;20036;-81
2023/08/08 04:00:37;;;;;;;5.63;3.15;;;13.10;99.90;;;;;;5070675;28;20045;-81
2023/08/08 04:03:03;;;;;;;5.97;2.88;;;13.00;99.90;;;;;;5070014;28;20563;-82
2023/08/08 04:05:29;;;;;;;6.50;3.10;;;13.00;99.90;;;;;;5069896;28;20060;-80
2023/08/08 04:07:54;;;;;;;5.40;3.03;;;13.00;99.90;;;;;;5053265;28;20048;-81
2023/08/08 04:10:20;;;;;;;6.50;3.63;;;13.00;99.90;;;;;;5069325;28;20128;-82
2023/08/08 04:12:46;;;;;;;5.43;3.05;;;12.90;99.90;;;;;;5053426;28;20068;-81
2023/08/08 04:15:11;;;;;;;6.18;3.22;;;12.90;99.90;;;;;;5056471;28;20040;-82
2023/08/08 04:17:37;;;;;;;4.43;2.63;;;12.90;99.90;;;;;;5048089;28;20102;-82
2023/08/08 04:20:05;;;;;;;5.18;2.53;;;12.90;99.90;;;;;;5056523;28;20393;-81
2023/08/08 04:22:31;;;;;;;3.80;2.53;;;12.90;99.90;;;;;;5044692;28;20124;-81
2023/08/08 04:24:57;;;;;;;5.40;2.33;;;12.90;99.90;;;;;;5061861;28;20178;-81
2023/08/08 04:27:22;;;;;;;3.70;2.03;;;12.90;99.90;;;;;;5052836;28;20049;-82
2023/08/08 04:29:48;;;;;;;5.30;2.05;;;12.80;99.90;;;;;;5089567;28;20059;-81
2023/08/08 04:32:14;;;;;;;6.20;2.33;;;12.90;99.90;;;;;;5062797;28;20069;-81
2023/08/08 04:34:39;;;;;;;4.38;2.35;;;12.80;99.90;;;;;;5048221;28;20048;-82
2023/08/08 04:37:05;;;;;;;4.07;1.98;;;12.80;99.90;;;;;;5062946;28;20079;-82
2023/08/08 04:39:31;;;;;;;4.35;1.90;;;12.80;99.90;;;;;;5071435;28;20055;-82
2023/08/08 04:41:56;;;;;;;3.58;2.05;;;12.80;99.90;;;;;;5069552;28;20442;-81
2023/08/08 04:44:22;;;;;;;4.30;1.77;;;12.80;99.90;;;;;;5069608;28;20456;-81
2023/08/08 04:46:48;;;;;;;3.50;1.88;;;12.80;99.90;;;;;;5054496;28;20393;-81
2023/08/08 04:49:13;;;;;;;4.55;2.50;;;12.80;99.90;;;;;;5020125;28;20044;-81
2023/08/08 04:51:39;;;;;;;4.53;2.10;;;12.80;99.90;;;;;;5053973;28;20041;-81
2023/08/08 04:54:05;;;;;;;3.63;1.65;;;12.90;99.90;;;;;;5072972;28;20119;-81
2023/08/08 04:56:31;;;;;;;5.55;1.80;;;12.90;99.90;;;;;;5058544;28;20044;-81
2023/08/08 04:58:56;;;;;;;4.93;1.75;;;13.00;99.90;;;;;;5069236;28;20106;-82
2023/08/08 05:01:22;;;;;;;7.25;1.67;;;13.00;99.90;;;;;;5068487;28;20048;-81
2023/08/08 05:03:48;;;;;;;3.75;1.70;;;13.00;99.90;;;;;;5071161;28;20045;-80
2023/08/08 05:06:14;;;;;;;3.42;1.52;;;13.00;99.90;;;;;;5069931;28;20485;-83
2023/08/08 05:08:39;;;;;;;3.92;1.90;;;13.00;99.90;;;;;;5052683;28;20106;-82
2023/08/08 05:11:05;;;;;;;4.80;1.90;;;13.10;99.90;;;;;;5052362;28;20049;-82
2023/08/08 05:13:31;;;;;;;3.70;1.60;;;13.10;99.90;;;;;;5052877;28;20053;-81
2023/08/08 05:15:56;;;;;;;3.28;1.50;;;13.00;99.90;;;;;;5071381;28;20072;-81
2023/08/08 05:18:22;;;;;;;4.50;1.58;;;13.00;99.90;;;;;;5053081;28;20056;-81
2023/08/08 05:20:47;;;;;;;4.60;1.75;;;13.00;99.90;;;;;;5051874;28;20053;-82
2023/08/08 05:23:13;;;;;;;4.45;1.52;;;13.00;99.90;;;;;;5052601;28;20048;-81
2023/08/08 05:25:39;;;;;;;3.60;1.58;;;13.00;99.90;;;;;;5057055;28;20477;-79
2023/08/08 05:28:05;;;;;;;5.20;3.33;;;13.10;99.90;;;;;;5066189;28;20110;-81
2023/08/08 05:30:31;;;;;;;4.85;1.48;;;13.10;99.90;;;;;;5033944;28;20091;-82
2023/08/08 05:32:56;;;;;;;4.50;1.23;;;13.20;99.90;;;;;;5071736;28;20098;-82
2023/08/08 05:35:22;;;;;;;4.53;1.33;;;13.30;99.90;;;;;;5051723;28;20041;-82
2023/08/08 05:37:48;;;;;;;3.75;1.30;;;13.40;99.90;;;;;;5083251;28;20079;-83
2023/08/08 05:40:14;;;;;;;3.55;1.23;;;13.60;99.90;;;;;;5054860;28;20040;-82
2023/08/08 05:42:39;;;;;;;3.75;1.40;;;13.80;99.90;;;;;;5059697;28;20060;-82
2023/08/08 05:45:06;;;;;;;2.70;1.25;;;13.90;99.90;;;;;;5070267;28;20405;-82
2023/08/08 05:47:32;;;;;;;3.50;1.27;;;13.90;99.90;;;;;;5068516;28;20055;-82
2023/08/08 05:49:58;;;;;;;3.00;1.23;;;14.00;99.90;;;;;;5068285;28;20041;-81
2023/08/08 05:52:24;;;;;;;4.05;1.30;;;14.00;99.90;;;;;;5054862;28;20102;-82
2023/08/08 05:54:49;;;;;;;3.35;1.75;;;14.10;99.90;;;;;;5038127;28;20091;-80
2023/08/08 05:57:16;;;;;;;2.33;1.10;;;14.20;99.90;;;;;;5028836;28;20067;-81
2023/08/08 05:59:44;;;;;;;2.85;1.50;;;14.20;99.90;;;;;;5055752;28;20501;-81
2023/08/08 06:02:10;;;;;;;3.63;1.20;;;14.30;99.90;;;;;;5063745;28;20051;-80
2023/08/08 06:04:36;;;;;;;3.30;1.10;;;14.30;99.90;;;;;;5051405;28;20052;-81
2023/08/08 06:07:02;;;;;;;2.20;1.27;;;14.30;99.90;;;;;;5069083;28;20044;-81
2023/08/08 06:09:28;;;;;;;2.50;1.45;;;14.30;99.90;;;;;;5035140;28;20048;-79
2023/08/08 06:11:53;;;;;;;2.60;0.90;;;14.30;99.90;;;;;;5069871;28;20045;-80
2023/08/08 06:14:19;;;;;;;2.00;0.90;;;14.30;99.90;;;;;;5056649;28;20402;-72
2023/08/08 06:16:46;;;;;;;3.05;1.10;;;14.30;99.90;;;;;;5068277;28;20036;-72
2023/08/08 06:19:13;;;;;;;1.80;0.80;;;14.30;99.90;;;;;;5051894;28;20045;-71
2023/08/08 06:21:39;;;;;;;1.63;0.82;;;14.20;99.90;;;;;;5052051;28;20106;-72
2023/08/08 06:24:05;;;;;;;2.90;1.10;;;14.10;99.90;;;;;;5055580;28;20040;-72
2023/08/08 06:26:30;;;;;;;3.92;1.10;;;14.10;99.90;;;;;;5054185;28;20037;-73
2023/08/08 06:28:56;;;;;;;3.22;0.82;;;14.20;99.90;;;;;;5068049;28;20037;-72
2023/08/08 06:31:22;;;;;;;3.38;1.35;;;14.30;99.90;;;;;;5074113;28;20090;-75
2023/08/08 06:33:48;;;;;;;4.15;1.20;;;14.50;99.90;;;;;;5056657;28;20470;-76
2023/08/08 06:36:14;;;;;;;3.78;1.73;;;14.60;99.90;;;;;;5059449;28;20103;-72
2023/08/08 06:38:39;;;;;;;5.82;1.17;;;14.70;99.90;;;;;;5073440;28;20077;-73
2023/08/08 06:41:05;;;;;;;4.10;1.02;;;14.80;99.90;;;;;;5073703;28;20040;-73
2023/08/08 06:43:31;;;;;;;3.05;1.10;;;14.80;99.90;;;;;;5062593;28;20040;-73
2023/08/08 06:45:57;;;;;;;2.13;0.63;;;14.90;99.90;;;;;;5061747;28;20107;-72
2023/08/08 06:48:23;;;;;;;2.45;1.08;;;15.00;99.90;;;;;;5063829;28;20057;-72
2023/08/08 06:50:49;;;;;;;5.03;1.42;;;15.10;99.90;;;;;;5058021;28;20045;-73
2023/08/08 06:53:15;;;;;;;3.22;0.90;;;15.10;99.90;;;;;;5054936;28;20495;-73
2023/08/08 06:55:41;;;;;;;2.65;0.90;;;15.20;99.90;;;;;;5063327;28;20127;-74
2023/08/08 06:58:07;;;;;;;4.35;1.00;;;15.20;99.90;;;;;;5068481;28;20101;-72
2023/08/08 07:00:32;;;;;;;6.22;1.35;;;15.30;99.90;;;;;;5055862;28;20049;-72
2023/08/08 07:02:58;;;;;;;5.97;1.20;;;15.40;99.90;;;;;;5059574;28;20041;-70
2023/08/08 07:05:24;;;;;;;2.75;0.90;;;15.40;99.90;;;;;;5058956;28;20048;-72
2023/08/08 07:07:50;;;;;;;3.25;1.58;;;15.50;99.90;;;;;;5063565;28;20080;-72
2023/08/08 07:10:16;;;;;;;4.72;0.95;;;15.60;99.90;;;;;;5064314;28;20049;-76
2023/08/08 07:12:42;;;;;;;4.88;1.13;;;15.60;99.90;;;;;;5054697;28;20056;-76
2023/08/08 07:15:08;;;;;;;3.58;1.02;;;15.70;99.90;;;;;;5061863;28;20036;-74
2023/08/08 07:17:34;;;;;;;1.83;0.88;;;15.70;99.90;;;;;;5064558;28;20052;-73
2023/08/08 07:20:00;;;;;;;2.75;0.85;;;15.70;99.90;;;;;;5076149;28;20049;-72
2023/08/08 07:22:25;;;;;;;4.25;1.00;;;15.80;99.90;;;;;;5066844;28;20561;-72
2023/08/08 07:24:51;;;;;;;2.65;1.13;;;15.80;99.90;;;;;;5073240;28;20044;-71
2023/08/08 07:27:17;;;;;;;5.43;1.10;;;15.90;99.90;;;;;;5062286;28;20043;-74
2023/08/08 07:29:42;;;;;;;1.80;0.70;;;16.00;99.90;;;;;;5061102;28;20055;-73
2023/08/08 07:32:08;;;;;;;3.90;1.00;;;16.10;99.90;;;;;;5072152;28;20062;-76
2023/08/08 07:34:35;;;;;;;4.30;1.25;;;16.20;99.90;;;;;;5040744;28;20053;-76
2023/08/08 07:37:00;;;;;;;3.20;1.60;;;16.20;99.90;;;;;;5052618;28;20059;-76
2023/08/08 07:39:26;;;;;;;2.30;0.90;;;16.30;99.90;;;;;;5087093;28;20049;-73
2023/08/08 07:41:52;;;;;;;2.22;0.98;;;16.30;99.90;;;;;;5067520;28;20044;-72
2023/08/08 07:44:18;;;;;;;3.80;1.30;;;16.30;99.90;;;;;;5065422;28;20072;-75
2023/08/08 07:46:43;;;;;;;2.03;0.90;;;16.40;99.90;;;;;;5062170;28;20106;-73
2023/08/08 07:49:09;;;;;;;2.65;0.85;;;16.50;99.90;;;;;;5051911;28;20052;-73
2023/08/08 07:51:35;;;;;;;2.92;0.88;;;16.50;99.90;;;;;;5051923;28;20087;-74
2023/08/08 07:54:02;;;;;;;1.67;0.68;;;16.60;99.90;;;;;;5070227;28;20125;-73
2023/08/08 07:56:28;;;;;;;3.83;0.95;;;16.80;99.90;;;;;;5061935;28;20040;-74
2023/08/08 07:58:54;;;;;;;4.82;0.95;;;16.90;99.90;;;;;;5056904;28;20041;-73
2023/08/08 08:01:20;;;;;;;1.95;0.70;;;17.00;99.90;;;;;;5055561;28;20044;-74
2023/08/08 08:03:46;;;;;;;3.58;0.70;;;17.10;99.90;;;;;;5071841;28;20375;-76
2023/08/08 08:06:12;;;;;;;3.60;0.80;;;17.10;99.90;;;;;;5066882;28;20037;-73
2023/08/08 08:08:37;;;;;;;1.88;0.50;;;17.10;99.90;;;;;;5055604;28;20053;-73
2023/08/08 08:11:04;;;;;;;2.45;0.98;;;17.10;99.90;;;;;;5051946;28;20478;-72
2023/08/08 08:13:30;;;;;;;2.72;0.70;;;17.10;99.90;;;;;;5035889;28;20453;-72
2023/08/08 08:15:55;;;;;;;2.38;0.70;;;17.10;99.90;;;;;;5053373;28;20045;-72
2023/08/08 08:18:21;;;;;;;2.03;0.60;;;17.10;99.90;;;;;;5064632;28;20378;-71
2023/08/08 08:20:48;;;;;;;1.27;0.50;;;17.00;99.90;;;;;;5054138;28;20052;-72
2023/08/08 08:23:14;;;;;;;1.92;0.55;;;17.00;99.90;;;;;;5058488;28;20040;-73
2023/08/08 08:25:40;;;;;;;2.05;0.70;;;17.00;99.90;;;;;;5061898;28;20048;-72
2023/08/08 08:28:05;;;;;;;3.25;0.82;;;17.00;99.90;;;;;;5052353;28;20106;-70
2023/08/08 08:30:31;;;;;;;2.65;0.93;;;16.90;99.90;;;;;;5059377;28;20044;-70
2023/08/08 08:32:57;;;;;;;1.55;0.52;;;16.90;99.90;;;;;;5069652;28;20047;-71
2023/08/08 08:35:23;;;;;;;2.40;0.70;;;16.80;99.90;;;;;;5058801;28;20051;-70
2023/08/08 08:37:48;;;;;;;1.30;0.50;;;16.80;99.90;;;;;;5061323;28;20437;-71
2023/08/08 08:40:14;;;;;;;1.48;0.55;;;16.80;99.90;;;;;;5060051;28;20344;-71
2023/08/08 08:42:41;;;;;;;2.53;0.75;;;16.90;99.90;;;;;;5063704;28;20159;-71
2023/08/08 08:45:11;;;;;;;2.25;0.77;;;16.90;99.90;;;;;;5023611;28;1098166;-71
2023/08/08 08:47:40;;;;;;;3.05;0.73;;;16.90;99.90;;;;;;5057729;28;20450;-72
2023/08/08 08:50:07;;;;;;;2.25;0.77;;;16.80;99.90;;;;;;5051145;28;20044;-72
2023/08/08 08:52:33;;;;;;;1.67;0.63;;;17.00;99.90;;;;;;5053036;28;20056;-70
2023/08/08 08:54:58;;;;;;;2.65;0.70;;;17.00;99.90;;;;;;5058257;28;20115;-70
2023/08/08 08:57:24;;;;;;;1.67;0.70;;;17.00;99.90;;;;;;5050811;28;20037;-71
2023/08/08 08:59:51;;;;;;;2.17;0.70;;;17.20;99.90;;;;;;5060742;28;20098;-71
2023/08/08 09:02:18;;;;;;;3.55;1.00;;;17.20;99.90;;;;;;5071993;28;20504;-72
2023/08/08 09:04:45;;;;;;;2.67;0.70;;;17.10;99.90;;;;;;5066804;28;20040;-75
2023/08/08 09:07:12;;;;;;;4.53;0.95;;;17.00;99.90;;;;;;5063374;28;20053;-72
2023/08/08 09:09:38;;;;;;;4.03;0.93;;;17.10;99.90;;;;;;5068250;28;20060;-71
2023/08/08 09:12:07;;;;;;;2.08;0.80;;;17.10;99.90;;;;;;5067664;28;20041;-72
2023/08/08 09:14:33;;;;;;;2.78;0.70;;;17.20;99.90;;;;;;5053667;28;20076;-71
2023/08/08 09:16:59;;;;;;;3.00;0.70;;;17.20;99.90;;;;;;5059341;28;20413;-71
2023/08/08 09:19:25;;;;;;;2.63;0.60;;;17.10;99.90;;;;;;5058888;28;20087;-72
2023/08/08 09:21:52;;;;;;;2.70;0.90;;;17.10;99.90;;;;;;5067483;28;20048;-71
2023/08/08 09:24:18;;;;;;;2.65;0.82;;;17.30;99.90;;;;;;5054088;28;20041;-71
2023/08/08 09:26:44;;;;;;;3.42;0.85;;;17.60;99.90;;;;;;5052038;28;20090;-71
2023/08/08 09:29:12;;;;;;;1.77;0.70;;;17.60;99.90;;;;;;5067574;28;20451;-70
2023/08/08 09:31:39;;;;;;;1.83;0.68;;;17.40;99.90;;;;;;5060674;28;20135;-70
2023/08/08 09:34:05;;;;;;;1.80;0.73;;;17.20;99.90;;;;;;5052145;28;20128;-71
2023/08/08 09:36:33;;;;;;;2.42;0.73;;;17.20;99.90;;;;;;5055573;28;20482;-71
2023/08/08 09:38:59;;;;;;;2.90;0.60;;;17.10;99.90;;;;;;5055233;28;20120;-71
2023/08/08 09:41:25;;;;;;;1.17;0.60;;;17.20;99.90;;;;;;5070499;28;20139;-71
2023/08/08 09:43:53;;;;;;;3.63;0.77;;;17.20;99.90;;;;;;5062622;28;20037;-72
2023/08/08 09:46:19;;;;;;;2.25;0.75;;;17.20;99.90;;;;;;5051560;28;20057;-71
2023/08/08 09:48:46;;;;;;;2.83;0.90;;;17.40;99.90;;;;;;5051951;28;20051;-72
2023/08/08 09:51:12;;;;;;;2.00;0.70;;;17.70;99.90;;;;;;5053457;28;20116;-70
2023/08/08 09:53:39;;;;;;;3.10;0.75;;;17.80;99.90;;;;;;5061264;28;20083;-71
2023/08/08 09:56:05;;;;;;;1.60;0.73;;;17.40;99.90;;;;;;5051563;28;20048;-71
2023/08/08 09:58:32;;;;;;;1.30;0.60;;;17.00;99.90;;;;;;5068516;28;20060;-71
2023/08/08 10:00:58;;;;;;;2.80;0.80;;;16.60;99.90;;;;;;5052580;28;20128;-72
2023/08/08 10:03:24;;;;;;;2.42;0.80;;;16.00;99.90;;;;;;5065099;28;20037;-70
2023/08/08 10:05:51;;;;;;;1.95;0.70;;;15.50;99.90;;;;;;5050403;28;20478;-70
2023/08/08 10:08:17;;;;;;;1.90;0.90;;;15.30;99.90;;;;;;5051325;28;20060;-71
2023/08/08 10:10:46;;;;;;;2.67;0.90;;;15.30;99.90;;;;;;5051397;28;20048;-71
2023/08/08 10:13:22;;;;;;;1.98;0.80;;;15.60;99.90;;;;;;5055456;28;20486;-70
2023/08/08 10:15:48;;;;;;;2.90;0.88;;;16.00;99.90;;;;;;5051389;28;20417;-73
2023/08/08 10:18:14;;;;;;;1.42;0.80;;;16.50;99.90;;;;;;5053275;28;20397;-70
2023/08/08 10:20:44;;;;;;;1.70;0.93;;;16.90;99.90;;;;;;5054819;28;20041;-73
2023/08/08 10:23:10;;;;;;;3.20;1.42;;;17.20;99.90;;;;;;5070344;28;20131;-72
2023/08/08 10:25:36;;;;;;;1.95;0.80;;;17.30;99.90;;;;;;5068312;28;20131;-71
2023/08/08 10:28:05;;;;;;;1.52;0.80;;;17.20;99.90;;;;;;5055756;28;20076;-72
2023/08/08 10:31:08;;;;;;;2.17;0.88;;;17.00;99.90;;;;;;5051134;28;20049;-71
2023/08/08 10:33:41;;;;;;;3.67;1.02;;;16.90;99.90;;;;;;5054567;28;20547;-72
2023/08/08 10:36:08;;;;;;;2.92;0.80;;;16.80;99.90;;;;;;5057811;28;20041;-72
2023/08/08 10:38:48;;;;;;;1.33;0.70;;;16.70;99.90;;;;;;5070798;28;20055;-71
2023/08/08 10:41:21;;;;;;;1.83;0.95;;;16.90;99.90;;;;;;5060614;28;20096;-71
2023/08/08 10:43:56;;;;;;;3.05;0.77;;;17.10;99.90;;;;;;5051032;28;20105;-72
2023/08/08 10:46:24;;;;;;;1.98;0.80;;;17.30;99.90;;;;;;5051250;28;20489;-71
2023/08/08 10:48:56;;;;;;;2.22;0.70;;;17.60;99.90;;;;;;5051258;28;20120;-72
2023/08/08 10:51:22;;;;;;;2.97;0.90;;;17.70;99.90;;;;;;5050784;28;20061;-71
2023/08/08 10:53:52;;;;;;;1.88;0.75;;;17.60;99.90;;;;;;5051645;28;20055;-72
2023/08/08 10:56:19;;;;;;;3.30;1.00;;;17.40;99.90;;;;;;5054369;28;20037;-71
2023/08/08 10:58:49;;;;;;;3.08;0.75;;;17.10;99.90;;;;;;5066472;28;20045;-71
2023/08/08 11:01:16;;;;;;;2.90;0.90;;;17.30;99.90;;;;;;5054488;28;20490;-71
2023/08/08 11:03:43;;;;;;;1.20;0.57;;;17.60;99.90;;;;;;5048005;28;20049;-72
2023/08/08 11:06:10;;;;;;;2.70;0.80;;;17.70;99.90;;;;;;5048280;28;20119;-76
2023/08/08 11:08:38;;;;;;;2.55;1.00;;;17.60;99.90;;;;;;5064759;28;20111;-75
2023/08/08 11:11:04;;;;;;;2.22;0.90;;;17.50;99.90;;;;;;5063224;28;20077;-73
2023/08/08 11:13:30;;;;;;;2.40;0.82;;;17.40;99.90;;;;;;5067721;28;20045;-73
2023/08/08 11:15:56;;;;;;;3.83;1.00;;;17.20;99.90;;;;;;5070896;28;20410;-73
2023/08/08 11:18:22;;;;;;;1.60;0.80;;;17.50;99.90;;;;;;5055556;28;20413;-74
2023/08/08 11:20:49;;;;;;;2.70;0.82;;;17.80;99.90;;;;;;5053283;28;20045;-73
2023/08/08 11:23:16;;;;;;;4.15;0.80;;;17.80;99.90;;;;;;5067167;28;20080;-74
2023/08/08 11:25:44;;;;;;;2.55;1.60;;;17.60;99.90;;;;;;5055314;28;20049;-73
2023/08/08 11:28:11;;;;;;;2.38;0.90;;;17.30;99.90;;;;;;5063304;28;20056;-73
2023/08/08 11:30:39;;;;;;;2.42;0.90;;;17.10;99.90;;;;;;5070444;28;20390;-73
2023/08/08 11:33:05;;;;;;;2.42;0.90;;;17.20;99.90;;;;;;5064822;28;20048;-74
2023/08/08 11:35:31;;;;;;;2.75;0.85;;;17.50;99.90;;;;;;5059614;28;20401;-73
2023/08/08 11:37:58;;;;;;;1.98;0.68;;;17.90;99.90;;;;;;5068245;28;20068;-76
2023/08/08 11:40:30;;;;;;;4.05;0.80;;;18.30;99.90;;;;;;5067040;28;20120;-72
2023/08/08 11:42:57;;;;;;;2.20;0.73;;;18.50;99.90;;;;;;5074198;28;20059;-74
2023/08/08 11:45:23;;;;;;;3.17;0.93;;;18.50;99.90;;;;;;5073959;28;20113;-74
2023/08/08 11:47:50;;;;;;;2.22;0.80;;;18.20;99.90;;;;;;5071317;28;20071;-74
2023/08/08 11:50:18;;;;;;;1.95;1.00;;;18.00;99.90;;;;;;5067238;28;20308;-74
2023/08/08 11:52:46;;;;;;;3.17;0.98;;;18.10;99.90;;;;;;5073398;28;20040;-73
2023/08/08 11:55:12;;;;;;;3.90;1.10;;;18.40;99.90;;;;;;5069706;28;20057;-74
2023/08/08 11:57:41;;;;;;;2.33;0.82;;;18.60;99.90;;;;;;5053072;28;20033;-68
2023/08/08 12:00:14;;;;;;;3.28;0.80;;;18.70;99.90;;;;;;5070367;28;20074;-73
2023/08/08 12:02:41;;;;;;;2.35;0.90;;;18.70;99.90;;;;;;5073073;28;20222;-72
2023/08/08 12:05:12;;;;;;;2.00;1.00;;;18.30;99.90;;;;;;5072474;28;20055;-72
2023/08/08 12:07:41;;;;;;;3.67;0.82;;;18.10;99.90;;;;;;5071777;28;20090;-70
2023/08/08 12:10:18;;;;;;;2.40;0.88;;;18.20;99.90;;;;;;5072534;28;20055;-72
2023/08/08 12:12:45;;;;;;;2.45;0.82;;;18.50;99.90;;;;;;5071858;28;20057;-73
2023/08/08 12:15:11;;;;;;;1.88;0.80;;;18.50;99.90;;;;;;5072915;28;20455;-73
2023/08/08 12:17:37;;;;;;;4.03;0.90;;;18.40;99.90;;;;;;5071789;28;20044;-73
2023/08/08 12:20:05;;;;;;;2.55;0.70;;;18.40;99.90;;;;;;5071630;28;20036;-74
2023/08/08 12:22:31;;;;;;;2.10;0.70;;;18.60;99.90;;;;;;5070648;28;20072;-75
2023/08/08 12:24:57;;;;;;;3.03;0.82;;;18.90;99.90;;;;;;5071659;28;20045;-75
2023/08/08 12:27:23;;;;;;;2.00;0.80;;;19.00;99.90;;;;;;5054456;28;20123;-74
2023/08/08 12:29:48;;;;;;;2.70;0.60;;;19.00;99.90;;;;;;5065544;28;20455;-75
2023/08/08 12:32:14;;;;;;;2.10;0.82;;;19.00;99.90;;;;;;5070822;28;20400;-75
2023/08/08 12:34:39;;;;;;;3.60;0.80;;;19.10;99.90;;;;;;5072439;28;20040;-77
2023/08/08 12:37:05;;;;;;;3.10;1.10;;;19.10;99.90;;;;;;5070688;28;20119;-76
2023/08/08 12:39:31;;;;;;;3.95;0.85;;;19.10;99.90;;;;;;5070868;28;20052;-76
2023/08/08 12:41:57;;;;;;;2.75;0.80;;;19.20;99.90;;;;;;5071065;28;20130;-74